createdAt,value
2022-08-31T00:01:59.522Z,18.45
2022-08-31T00:12:52.346Z,18.25
2022-08-31T00:23:53.300Z,18.15
2022-08-31T00:34:53.529Z,18.06
2022-08-31T00:45:55.400Z,18.06
2022-08-31T00:56:56.614Z,18.06
2022-08-31T01:07:58.496Z,17.96
2022-08-31T01:19:00.302Z,17.96
2022-08-31T01:30:01.339Z,18.06
2022-08-31T01:40:58.162Z,18.16
2022-08-31T01:51:55.450Z,18.06
2022-08-31T02:02:57.475Z,17.86
2022-08-31T02:13:58.576Z,17.67
2022-08-31T02:25:00.099Z,17.67
2022-08-31T02:36:01.905Z,17.67
2022-08-31T02:46:40.290Z,17.67
2022-08-31T02:57:17.150Z,17.57
2022-08-31T03:08:18.545Z,17.47
2022-08-31T03:18:56.271Z,17.37
2022-08-31T03:29:34.020Z,17.18
2022-08-31T03:40:29.871Z,17.08
2022-08-31T03:51:14.416Z,17.18
2022-08-31T04:02:15.253Z,17.08
2022-08-31T04:13:16.534Z,17.08
2022-08-31T04:23:54.306Z,17.27
2022-08-31T04:34:56.340Z,17.27
2022-08-31T04:45:54.995Z,17.37
2022-08-31T04:56:56.892Z,17.47
2022-08-31T05:07:59.592Z,17.57
2022-08-31T05:19:01.818Z,17.86
2022-08-31T05:30:02.214Z,18.16
2022-08-31T05:41:03.742Z,18.45
2022-08-31T05:52:05.505Z,18.74
2022-08-31T06:02:54.037Z,19.03
2022-08-31T06:13:56.883Z,19.23
2022-08-31T06:24:58.643Z,19.33
2022-08-31T06:35:55.086Z,19.92
2022-08-31T06:46:56.666Z,20.01
2022-08-31T06:57:56.158Z,19.82
2022-08-31T07:08:54.544Z,20.50
2022-08-31T07:19:55.807Z,20.80
2022-08-31T07:30:53.216Z,20.89
2022-08-31T07:41:48.412Z,20.50
2022-08-31T07:52:41.071Z,20.01
2022-08-31T08:03:40.262Z,19.82
2022-08-31T08:14:14.508Z,19.52
2022-08-31T08:25:13.785Z,19.03
2022-08-31T08:36:16.090Z,18.35
2022-08-31T08:47:14.947Z,18.35
2022-08-31T08:58:14.689Z,19.04
2022-08-31T09:09:14.849Z,19.13
2022-08-31T09:20:15.316Z,19.92
2022-08-31T09:31:09.539Z,19.82
2022-08-31T09:41:46.451Z,19.52
2022-08-31T09:52:36.591Z,19.72
2022-08-31T10:03:37.127Z,21.19
2022-08-31T10:14:31.615Z,20.89
2022-08-31T10:25:30.764Z,21.38
2022-08-31T10:36:27.335Z,21.28
2022-08-31T10:47:03.358Z,22.26
2022-08-31T10:57:38.944Z,22.26
2022-08-31T11:08:39.213Z,24.12
2022-08-31T11:19:38.307Z,22.95
2022-08-31T11:30:10.716Z,21.97
2022-08-31T11:40:51.739Z,20.79
2022-08-31T11:51:41.488Z,20.40
2022-08-31T12:02:41.608Z,20.60
2022-08-31T12:13:38.694Z,20.40
2022-08-31T12:24:29.747Z,20.21
2022-08-31T12:35:03.483Z,20.01
2022-08-31T12:45:39.992Z,19.82
2022-08-31T12:56:14.337Z,19.92
2022-08-31T13:07:12.240Z,19.62
2022-08-31T13:18:11.240Z,19.62
2022-08-31T13:29:00.342Z,19.03
2022-08-31T13:39:56.330Z,18.74
2022-08-31T13:50:53.499Z,18.84
2022-08-31T14:01:48.084Z,18.64
2022-08-31T14:12:44.588Z,18.45
2022-08-31T14:23:39.359Z,18.06
2022-08-31T14:34:27.173Z,17.96
2022-08-31T14:45:26.025Z,18.06
2022-08-31T14:56:16.413Z,17.96
2022-08-31T15:07:15.004Z,17.96
2022-08-31T15:18:11.679Z,17.96
2022-08-31T15:29:11.766Z,17.76
2022-08-31T15:40:08.065Z,17.47
2022-08-31T15:51:06.771Z,17.37
2022-08-31T16:02:01.393Z,17.18
2022-08-31T16:12:57.951Z,16.88
2022-08-31T16:23:49.154Z,16.98
2022-08-31T16:34:48.257Z,16.69
2022-08-31T16:45:31.579Z,16.59
2022-08-31T16:56:26.327Z,16.30
2022-08-31T17:07:24.416Z,16.20
2022-08-31T17:18:23.734Z,15.90
2022-08-31T17:29:14.763Z,15.90
2022-08-31T17:40:10.199Z,15.81
2022-08-31T17:51:11.679Z,15.81
2022-08-31T18:02:03.800Z,15.71
2022-08-31T18:13:01.579Z,15.71
2022-08-31T18:23:48.161Z,15.71
2022-08-31T18:34:36.493Z,15.71
2022-08-31T18:45:25.725Z,15.61
2022-08-31T18:56:19.563Z,15.71
2022-08-31T19:07:09.231Z,15.61
2022-08-31T19:18:05.017Z,15.61
2022-08-31T19:28:59.674Z,15.61
2022-08-31T19:39:57.446Z,15.61
2022-08-31T19:50:57.155Z,15.61
2022-08-31T20:01:53.034Z,15.61
2022-08-31T20:12:49.513Z,15.61
2022-08-31T20:23:47.702Z,15.71
2022-08-31T20:34:47.589Z,15.61
2022-08-31T20:45:44.295Z,15.61
2022-08-31T20:56:42.996Z,15.61
2022-08-31T21:07:40.031Z,15.61
2022-08-31T21:18:38.373Z,15.51
2022-08-31T21:29:36.890Z,15.51
2022-08-31T21:40:36.741Z,15.61
2022-08-31T21:51:37.678Z,15.61
2022-08-31T22:02:28.563Z,15.61
2022-08-31T22:13:24.532Z,15.61
2022-08-31T22:24:27.349Z,15.61
2022-08-31T22:35:26.498Z,15.61
2022-08-31T22:46:20.519Z,15.61
2022-08-31T22:57:19.742Z,15.61
2022-08-31T23:08:17.872Z,15.61
2022-08-31T23:19:19.652Z,15.61
2022-08-31T23:30:13.080Z,15.61
2022-08-31T23:41:13.756Z,15.61
2022-08-31T23:52:10.934Z,15.51
